Time;durP1;ratioP1;P1;durP2;ratioP2;P2;SDS_P1;SDS_P2;PMS_P1;PMS_P2;Temp;Humidity;BMP_temperature;BMP_pressure;BME280_temperature;BME280_humidity;BME280_pressure;Samples;Min_cycle;Max_cycle;Signal;HPM_P1;HPM_P2
2022/01/15 00:01:43;;;;;;;10.55;9.10;;;;;;;18.27;37.48;102088.69;5014390;28;20048;-83
2022/01/15 00:04:11;;;;;;;10.93;8.70;;;;;;;18.28;37.20;102084.19;5014643;28;20054;-82
2022/01/15 00:06:38;;;;;;;10.52;8.85;;;;;;;18.27;37.31;102075.28;5014479;28;20037;-81
2022/01/15 00:09:06;;;;;;;13.48;8.98;;;;;;;18.28;37.00;102077.00;5015198;28;20490;-81
2022/01/15 00:11:34;;;;;;;9.20;8.18;;;;;;;18.28;36.98;102079.69;5015325;28;20046;-81
2022/01/15 00:14:12;;;;;;;11.90;9.02;;;;;;;18.28;36.78;102077.00;5012271;28;20386;-81
2022/01/15 00:16:49;;;;;;;11.30;8.23;;;;;;;18.27;36.69;102075.28;5013675;28;20057;-81
2022/01/15 00:19:18;;;;;;;10.60;8.27;;;;;;;18.28;36.71;102077.00;5014048;28;20046;-81
2022/01/15 00:21:46;;;;;;;9.82;8.45;;;;;;;18.29;36.30;102072.50;5013869;28;20050;-81
2022/01/15 00:24:15;;;;;;;10.35;8.68;;;;;;;18.29;36.46;102075.19;5013662;28;20058;-81
2022/01/15 00:26:42;;;;;;;8.98;7.97;;;;;;;18.29;36.41;102072.50;5013806;28;20056;-82
2022/01/15 00:29:09;;;;;;;9.60;8.32;;;;;;;18.29;36.36;102081.41;5014018;28;20050;-81
2022/01/15 00:31:37;;;;;;;11.50;8.25;;;;;;;18.29;36.28;102086.75;5013203;28;20081;-81
2022/01/15 00:34:04;;;;;;;11.73;9.15;;;;;;;18.29;36.19;102084.09;5013904;28;20053;-81
2022/01/15 00:36:32;;;;;;;9.40;7.55;;;;;;;18.29;36.34;102073.34;5013695;28;20053;-81
2022/01/15 00:38:59;;;;;;;9.20;7.80;;;;;;;18.31;36.02;102080.44;5011839;28;20045;-81
2022/01/15 00:41:27;;;;;;;8.93;8.02;;;;;;;18.31;36.14;102067.91;5013390;28;20402;-81
2022/01/15 00:43:54;;;;;;;10.40;8.30;;;;;;;18.32;36.15;102066.09;5013325;28;20481;-81
2022/01/15 00:46:22;;;;;;;9.05;8.15;;;;;;;18.31;36.09;102062.56;5013456;28;20045;-81
2022/01/15 00:48:49;;;;;;;9.77;7.95;;;;;;;18.32;35.97;102058.06;5013575;28;20046;-81
2022/01/15 00:51:17;;;;;;;9.73;7.68;;;;;;;18.32;35.97;102056.22;5013375;28;20045;-81
2022/01/15 00:53:44;;;;;;;9.68;7.90;;;;;;;18.34;35.96;102042.72;5013579;28;20171;-81
2022/01/15 00:56:11;;;;;;;12.45;8.63;;;;;;;18.33;35.94;102043.69;5013194;28;20049;-82
2022/01/15 00:58:39;;;;;;;10.05;8.30;;;;;;;18.33;36.04;102051.72;5013431;28;20095;-81
2022/01/15 01:01:06;;;;;;;10.20;8.30;;;;;;;18.34;35.77;102042.72;5013535;28;20489;-83
2022/01/15 01:03:34;;;;;;;9.70;8.13;;;;;;;18.34;35.78;102053.44;5011850;28;20057;-83
2022/01/15 01:06:01;;;;;;;8.18;7.30;;;;;;;18.36;35.76;102056.91;5013593;28;20060;-83
2022/01/15 01:08:28;;;;;;;10.50;7.97;;;;;;;18.36;35.67;102043.50;5013376;28;20046;-82
2022/01/15 01:10:58;;;;;;;9.77;7.40;;;;;;;18.36;35.72;102043.50;5023647;28;20057;-82
2022/01/15 01:24:27;;;;;;;9.32;7.82;;;;;;;18.39;35.49;102043.28;5033222;28;20378;-82
2022/01/15 01:34:29;;;;;;;9.45;7.50;;;;;;;18.42;35.51;102032.38;5032765;28;20041;-82
2022/01/15 01:37:09;;;;;;;8.63;7.43;;;;;;;18.42;35.49;102035.06;5032262;28;20053;-82
2022/01/15 01:39:49;;;;;;;9.27;7.05;;;;;;;18.42;35.57;102032.38;5032546;28;20045;-82
2022/01/15 01:45:10;;;;;;;8.13;7.20;;;;;;;18.43;35.52;102010.84;5032969;28;20489;-81
2022/01/15 01:47:41;;;;;;;8.20;7.13;;;;;;;18.44;35.61;102009.88;5031363;28;20056;-82
2022/01/15 01:50:15;;;;;;;8.50;6.65;;;;;;;18.44;35.51;102012.56;5032856;28;20053;-83
2022/01/15 01:52:46;;;;;;;7.65;6.50;;;;;;;18.45;35.57;102008.06;5032400;28;20053;-83
2022/01/15 01:55:15;;;;;;;8.27;7.03;;;;;;;18.44;35.58;101995.63;5031409;28;20062;-83
2022/01/15 01:57:43;;;;;;;7.50;6.53;;;;;;;18.44;35.61;101996.47;5032306;28;20053;-83
2022/01/15 02:00:13;;;;;;;8.55;7.05;;;;;;;18.45;35.57;101994.66;5032494;28;20045;-82
2022/01/15 02:02:43;;;;;;;9.18;7.50;;;;;;;18.45;35.67;101981.25;5039090;28;20049;-82
2022/01/15 02:05:12;;;;;;;8.45;6.72;;;;;;;18.45;35.65;101982.09;5032704;28;20424;-82
2022/01/15 02:07:43;;;;;;;8.25;6.88;;;;;;;18.45;35.68;101978.56;5032335;28;20500;-82
2022/01/15 02:10:13;;;;;;;8.90;7.00;;;;;;;18.45;35.65;101986.59;5031694;28;20065;-83
2022/01/15 02:12:42;;;;;;;7.15;6.25;;;;;;;18.45;35.71;101990.16;5018316;28;20038;-82
2022/01/15 02:15:21;;;;;;;6.68;5.90;;;;;;;18.45;35.72;101986.59;5012907;28;20508;-83
2022/01/15 02:17:50;;;;;;;8.73;6.50;;;;;;;18.45;35.91;101981.25;4992428;28;20399;-82
2022/01/15 02:25:53;;;;;;;6.80;6.10;;;;;;;18.44;35.70;101953.56;4996547;28;20418;-83
2022/01/15 02:28:27;;;;;;;7.35;6.35;;;;;;;18.44;36.00;101945.53;4996216;28;20509;-83
2022/01/15 02:30:56;;;;;;;7.45;5.97;;;;;;;18.44;35.88;101942.00;5011342;28;20066;-83
2022/01/15 02:33:24;;;;;;;7.55;6.15;;;;;;;18.44;35.69;101936.63;4994639;28;20058;-81
2022/01/15 02:35:52;;;;;;;7.18;6.05;;;;;;;18.45;35.54;101943.72;4996634;28;20478;-82
2022/01/15 02:38:20;;;;;;;7.32;6.63;;;;;;;18.46;35.65;101929.34;4996622;28;20046;-81
2022/01/15 02:40:47;;;;;;;7.68;6.07;;;;;;;18.45;35.66;101925.78;4996098;28;20402;-81
2022/01/15 02:43:19;;;;;;;7.82;6.15;;;;;;;18.45;35.50;101920.44;5010898;28;20482;-81
2022/01/15 02:45:57;;;;;;;6.70;5.55;;;;;;;18.46;35.42;101915.94;4996440;28;20050;-81
2022/01/15 02:48:28;;;;;;;7.40;5.93;;;;;;;18.46;35.61;101916.78;5011013;28;20038;-82
2022/01/15 02:50:57;;;;;;;6.30;5.70;;;;;;;18.47;35.64;101920.31;4995987;28;20501;-82
2022/01/15 02:53:24;;;;;;;8.63;5.97;;;;;;;18.47;35.51;101905.13;4995923;28;20057;-82
2022/01/15 02:55:53;;;;;;;7.45;5.45;;;;;;;18.47;35.68;101904.22;4995867;28;20054;-82
2022/01/15 02:58:23;;;;;;;6.00;5.40;;;;;;;18.46;35.78;101903.38;4995593;28;20049;-81
2022/01/15 03:00:51;;;;;;;6.63;5.95;;;;;;;18.48;35.79;101898.78;5011606;28;20399;-81
2022/01/15 03:03:19;;;;;;;6.88;5.40;;;;;;;18.48;35.78;101911.34;5010577;28;20415;-81
2022/01/15 03:05:47;;;;;;;6.47;5.75;;;;;;;18.48;35.83;101905.97;4997558;28;20046;-81
2022/01/15 03:08:14;;;;;;;6.80;6.07;;;;;;;18.49;35.79;101907.69;5015106;28;20046;-80
2022/01/15 03:10:42;;;;;;;5.93;4.93;;;;;;;18.48;35.74;101905.97;5015723;28;20050;-80
2022/01/15 03:13:12;;;;;;;5.85;5.07;;;;;;;18.48;35.77;101892.56;5027396;28;20037;-80
2022/01/15 03:15:41;;;;;;;7.85;5.05;;;;;;;18.48;35.87;101890.75;5015098;28;20046;-80
2022/01/15 03:18:08;;;;;;;5.32;4.82;;;;;;;18.48;35.84;101890.75;5015003;28;20050;-80
2022/01/15 03:20:36;;;;;;;6.35;5.35;;;;;;;18.49;35.88;101891.59;5014673;28;20378;-80
2022/01/15 03:23:03;;;;;;;8.07;5.40;;;;;;;18.48;35.77;101887.22;5015001;28;20406;-80
2022/01/15 03:25:30;;;;;;;6.20;5.03;;;;;;;18.47;35.82;101883.66;5014699;28;20038;-80
2022/01/15 03:27:58;;;;;;;6.63;4.82;;;;;;;18.48;35.87;101879.16;5014775;28;20050;-80
2022/01/15 03:30:25;;;;;;;4.90;4.40;;;;;;;18.48;35.92;101879.16;5013840;28;20053;-80
2022/01/15 03:32:52;;;;;;;7.15;5.57;;;;;;;18.47;35.83;101875.63;5014926;28;20046;-82
2022/01/15 03:35:20;;;;;;;6.25;5.18;;;;;;;18.48;35.80;101881.84;5014797;28;20056;-81
2022/01/15 03:37:47;;;;;;;6.95;5.07;;;;;;;18.48;35.89;101885.38;5014600;28;20485;-81
2022/01/15 03:40:16;;;;;;;6.28;4.80;;;;;;;18.47;36.03;101893.50;5014510;28;20054;-81
2022/01/15 03:42:44;;;;;;;7.55;5.22;;;;;;;18.47;36.06;101888.16;4997169;28;20057;-81
2022/01/15 03:45:14;;;;;;;5.15;4.65;;;;;;;18.47;35.87;101880.09;5014422;28;20060;-81
2022/01/15 03:47:43;;;;;;;6.03;5.35;;;;;;;18.46;36.02;101876.56;5014325;28;20108;-81
2022/01/15 03:50:11;;;;;;;4.72;4.20;;;;;;;18.47;35.97;101872.06;5014725;28;20038;-82
2022/01/15 03:52:38;;;;;;;6.25;4.78;;;;;;;18.46;35.97;101859.63;5014212;28;20482;-81
2022/01/15 03:55:08;;;;;;;5.25;4.70;;;;;;;18.46;35.90;101859.63;5014168;28;20050;-81
2022/01/15 03:57:36;;;;;;;5.25;4.38;;;;;;;18.46;35.90;101862.31;5014513;28;20054;-81
2022/01/15 04:00:10;;;;;;;6.47;4.75;;;;;;;18.46;35.91;101873.03;5014131;28;20504;-82
2022/01/15 04:02:38;;;;;;;6.18;4.68;;;;;;;18.45;36.01;101863.28;5020712;28;20129;-81
2022/01/15 04:05:06;;;;;;;6.18;4.53;;;;;;;18.45;36.01;101871.31;5012372;28;20077;-81
2022/01/15 04:07:33;;;;;;;5.20;4.10;;;;;;;18.44;35.94;101856.19;5014136;28;20053;-81
2022/01/15 04:10:02;;;;;;;5.72;4.85;;;;;;;18.44;35.99;101864.25;5014065;28;20046;-81
2022/01/15 04:12:29;;;;;;;5.38;4.60;;;;;;;18.44;35.95;101858.88;5018014;28;20045;-81
2022/01/15 04:14:57;;;;;;;4.97;4.47;;;;;;;18.44;36.11;101861.56;5025459;28;20497;-81
2022/01/15 04:17:25;;;;;;;5.65;4.53;;;;;;;18.44;36.05;101872.28;5019881;28;20056;-82
2022/01/15 04:19:53;;;;;;;6.03;4.72;;;;;;;18.42;35.97;101858.97;5013949;28;20379;-82
2022/01/15 04:22:20;;;;;;;5.28;4.25;;;;;;;18.44;36.10;101869.59;5013808;28;20045;-81
2022/01/15 04:24:47;;;;;;;5.32;4.53;;;;;;;18.43;35.94;101854.44;5013802;28;20054;-82
2022/01/15 04:27:22;;;;;;;5.35;4.40;;;;;;;18.43;35.92;101863.38;5012473;28;20363;-82
2022/01/15 04:29:50;;;;;;;5.65;4.45;;;;;;;18.43;35.94;101865.19;5013928;28;20069;-81
2022/01/15 04:32:18;;;;;;;6.20;4.50;;;;;;;18.43;36.23;101873.22;5013705;28;20109;-81
2022/01/15 04:34:47;;;;;;;6.43;4.55;;;;;;;18.43;36.17;101883.94;5013339;28;20057;-80
2022/01/15 04:37:21;;;;;;;5.68;4.18;;;;;;;18.42;36.24;101879.56;5014323;28;20053;-80
2022/01/15 04:39:49;;;;;;;5.00;4.47;;;;;;;18.42;36.29;101876.88;5013938;28;20042;-81
2022/01/15 04:42:20;;;;;;;5.45;3.90;;;;;;;18.42;35.80;101885.78;5013352;28;20061;-81
2022/01/15 04:44:48;;;;;;;4.30;3.72;;;;;;;18.42;36.10;101896.50;5014026;28;20049;-81
2022/01/15 04:47:15;;;;;;;6.72;4.57;;;;;;;18.43;36.01;101898.25;5013733;28;20053;-82
2022/01/15 04:49:42;;;;;;;6.68;3.90;;;;;;;18.43;36.22;101894.66;5013534;28;20034;-81
2022/01/15 04:52:10;;;;;;;4.55;3.67;;;;;;;18.43;36.02;101894.66;5013487;28;20050;-81
2022/01/15 04:54:37;;;;;;;5.78;3.58;;;;;;;18.43;36.20;101894.66;5013338;28;20053;-82
2022/01/15 04:57:05;;;;;;;5.13;3.92;;;;;;;18.41;36.17;101905.50;5013335;28;20045;-81
2022/01/15 04:59:33;;;;;;;7.05;4.55;;;;;;;18.44;36.13;101909.81;5013441;28;20061;-81
2022/01/15 05:02:00;;;;;;;5.03;3.83;;;;;;;18.42;36.21;101909.91;5011861;28;20061;-80
2022/01/15 05:04:27;;;;;;;4.05;3.42;;;;;;;18.42;36.22;101914.41;5011738;28;20054;-81
2022/01/15 05:06:55;;;;;;;4.93;4.03;;;;;;;18.42;36.44;101917.09;5013454;28;20045;-80
2022/01/15 05:09:22;;;;;;;4.90;3.85;;;;;;;18.42;36.28;101922.44;5013142;28;20091;-80
2022/01/15 05:12:01;;;;;;;7.05;4.07;;;;;;;18.42;36.44;101927.81;5013108;28;20049;-80
2022/01/15 05:14:29;;;;;;;4.95;3.63;;;;;;;18.43;36.38;101929.53;5023549;28;20052;-81
2022/01/15 05:16:56;;;;;;;4.50;3.55;;;;;;;18.44;36.40;101936.63;5012679;28;20080;-81
2022/01/15 05:19:24;;;;;;;4.57;3.85;;;;;;;18.42;36.24;101933.19;5012020;28;20519;-81
2022/01/15 05:21:54;;;;;;;7.18;3.50;;;;;;;18.43;36.36;101942.94;5013112;28;20402;-81
2022/01/15 05:24:23;;;;;;;5.97;3.08;;;;;;;18.42;36.25;101944.75;5013030;28;20046;-81
2022/01/15 05:26:50;;;;;;;4.70;3.40;;;;;;;18.41;36.32;101945.72;5013039;28;20409;-82
2022/01/15 05:29:17;;;;;;;4.60;3.90;;;;;;;18.42;36.39;101949.25;5013196;28;20046;-82
2022/01/15 05:31:45;;;;;;;6.60;3.55;;;;;;;18.42;36.34;101950.13;5012940;28;20050;-82
2022/01/15 05:34:12;;;;;;;3.88;3.45;;;;;;;18.40;36.36;101954.72;5013026;28;20053;-82
2022/01/15 05:36:39;;;;;;;4.70;3.60;;;;;;;18.40;36.23;101956.56;5013202;28;20053;-82
2022/01/15 05:39:08;;;;;;;4.65;3.40;;;;;;;18.40;36.40;101961.91;5013041;28;20125;-82
2022/01/15 05:41:35;;;;;;;4.32;3.20;;;;;;;18.40;36.36;101967.28;5013269;28;20057;-82
2022/01/15 05:44:03;;;;;;;4.18;3.33;;;;;;;18.39;36.30;101961.06;5013407;28;20046;-82
2022/01/15 05:46:33;;;;;;;4.93;3.67;;;;;;;18.38;36.29;101963.81;5012997;28;20437;-81
2022/01/15 05:49:04;;;;;;;3.92;3.08;;;;;;;18.38;36.41;101964.69;5011818;28;20046;-81
2022/01/15 05:51:31;;;;;;;5.28;3.40;;;;;;;18.38;36.24;101964.69;5013517;28;20053;-81
2022/01/15 05:54:00;;;;;;;5.20;3.70;;;;;;;18.39;36.29;101965.53;5013799;28;20042;-82
2022/01/15 05:56:28;;;;;;;4.55;3.80;;;;;;;18.39;36.25;101973.56;5016788;28;20050;-82
2022/01/15 05:58:56;;;;;;;5.63;3.55;;;;;;;18.38;36.28;101975.41;5016718;28;20056;-82
2022/01/15 06:01:23;;;;;;;4.65;3.13;;;;;;;18.38;36.22;101974.53;5016520;28;20393;-82
2022/01/15 06:03:50;;;;;;;4.22;3.25;;;;;;;18.37;36.22;101972.84;5016457;28;20486;-81
2022/01/15 06:06:18;;;;;;;3.83;3.38;;;;;;;18.38;36.26;101979.91;5014874;28;20057;-81
2022/01/15 06:08:46;;;;;;;4.72;3.20;;;;;;;18.38;36.30;101975.41;5016483;28;20042;-80
2022/01/15 06:11:17;;;;;;;4.40;3.35;;;;;;;18.37;36.15;101972.84;5015554;28;20402;-81
2022/01/15 06:13:46;;;;;;;4.10;3.05;;;;;;;18.38;36.32;101975.41;5016368;28;20049;-81
2022/01/15 06:16:14;;;;;;;3.53;2.88;;;;;;;18.37;36.29;101972.84;5021697;28;20045;-81
2022/01/15 06:18:42;;;;;;;3.78;3.00;;;;;;;18.35;36.42;101978.31;5017115;28;20069;-82
2022/01/15 06:21:09;;;;;;;5.28;3.33;;;;;;;18.35;36.53;101980.09;5016438;28;20048;-83
2022/01/15 06:23:37;;;;;;;4.32;3.22;;;;;;;18.33;36.86;101973.97;5014975;28;20054;-83
2022/01/15 06:26:04;;;;;;;4.35;3.53;;;;;;;18.32;36.51;101975.81;5016100;28;20046;-89
2022/01/15 06:28:33;;;;;;;5.03;3.25;;;;;;;18.31;36.76;101983.94;5016646;28;20050;-82
2022/01/15 06:31:01;;;;;;;4.28;3.50;;;;;;;18.29;36.77;101986.72;5015751;28;20045;-82
2022/01/15 06:33:32;;;;;;;4.15;3.03;;;;;;;18.28;37.00;101985.00;4999061;28;20050;-82
2022/01/15 06:36:00;;;;;;;5.07;3.15;;;;;;;18.26;36.96;101990.44;5015736;28;20050;-82
2022/01/15 06:38:27;;;;;;;3.95;3.13;;;;;;;18.25;36.79;101986.03;5015896;28;20049;-81
2022/01/15 06:40:55;;;;;;;4.80;3.78;;;;;;;18.26;36.78;101990.44;5015828;28;20053;-82
2022/01/15 06:43:22;;;;;;;6.00;3.40;;;;;;;18.25;36.70;101980.69;5015453;28;20050;-81
2022/01/15 06:45:50;;;;;;;3.97;3.22;;;;;;;18.24;36.67;101984.34;5014438;28;20060;-81
2022/01/15 06:48:17;;;;;;;4.97;3.28;;;;;;;18.25;36.72;101974.47;5014875;28;20057;-81
2022/01/15 06:50:44;;;;;;;5.10;3.72;;;;;;;18.24;36.69;101976.28;5014257;28;20442;-81
2022/01/15 06:53:12;;;;;;;4.18;3.10;;;;;;;18.26;36.66;101987.75;4998273;28;20068;-81
2022/01/15 06:55:39;;;;;;;7.00;3.30;;;;;;;18.25;36.64;101985.19;5016010;28;20049;-82
2022/01/15 06:58:07;;;;;;;4.22;3.30;;;;;;;18.24;36.59;101975.44;5015681;28;20057;-81
2022/01/15 07:00:34;;;;;;;3.97;3.00;;;;;;;18.24;36.57;101984.34;5016129;28;20045;-81
2022/01/15 07:03:02;;;;;;;4.30;3.03;;;;;;;18.25;36.69;101987.88;5015606;28;20050;-81
2022/01/15 07:05:30;;;;;;;4.13;2.72;;;;;;;18.25;36.78;101985.19;5013642;28;20054;-81
2022/01/15 07:07:57;;;;;;;3.55;2.67;;;;;;;18.23;36.67;101985.31;5015040;28;20045;-81
2022/01/15 07:10:25;;;;;;;6.57;3.25;;;;;;;18.22;36.74;101977.34;5013503;28;20050;-81
2022/01/15 07:12:53;;;;;;;4.95;2.92;;;;;;;18.23;36.50;101990.66;5014776;28;20050;-81
2022/01/15 07:15:20;;;;;;;4.63;3.42;;;;;;;18.23;36.69;101987.09;5013502;28;20042;-81
2022/01/15 07:17:49;;;;;;;5.88;3.67;;;;;;;18.22;36.72;101988.91;5032039;28;20054;-81
2022/01/15 07:20:18;;;;;;;5.25;3.10;;;;;;;18.22;36.71;101982.69;5034894;28;20037;-81
2022/01/15 07:22:46;;;;;;;3.95;3.08;;;;;;;18.22;36.60;101993.41;5034674;28;20053;-82
2022/01/15 07:25:13;;;;;;;5.40;3.13;;;;;;;18.22;36.61;101983.56;5033595;28;20045;-81
2022/01/15 07:27:42;;;;;;;3.72;2.75;;;;;;;18.22;36.68;101986.22;5034904;28;20053;-81
2022/01/15 07:30:12;;;;;;;3.47;2.85;;;;;;;18.21;36.62;101989.88;5029099;28;20045;-81
2022/01/15 07:32:40;;;;;;;4.03;2.95;;;;;;;18.21;36.70;101989.88;5015155;28;20053;-81
2022/01/15 07:35:11;;;;;;;3.53;3.13;;;;;;;18.21;36.75;101984.53;5013547;28;20060;-81
2022/01/15 07:37:39;;;;;;;5.50;3.22;;;;;;;18.21;36.70;101991.69;5014815;28;20050;-81
2022/01/15 07:40:07;;;;;;;3.33;2.92;;;;;;;18.20;36.64;101993.53;5015055;28;20046;-82
2022/01/15 07:42:37;;;;;;;5.00;3.00;;;;;;;18.22;36.32;101993.41;5014712;28;20042;-82
2022/01/15 07:45:10;;;;;;;4.10;2.70;;;;;;;18.20;36.64;101993.53;5013476;28;20046;-82
2022/01/15 07:47:37;;;;;;;3.97;3.22;;;;;;;18.20;36.90;101992.66;5013148;28;20469;-81
2022/01/15 07:50:08;;;;;;;4.18;3.38;;;;;;;18.19;36.67;101991.81;5014353;28;20057;-81
2022/01/15 07:52:35;;;;;;;3.80;2.92;;;;;;;18.20;36.62;101995.34;5014669;28;20046;-82
2022/01/15 07:55:04;;;;;;;3.17;2.65;;;;;;;18.20;36.80;102003.38;5014392;28;20054;-83
2022/01/15 07:57:51;;;;;;;3.45;2.72;;;;;;;18.19;36.82;102005.22;5014631;28;20050;-83
2022/01/15 08:00:19;;;;;;;3.85;2.83;;;;;;;18.19;36.63;101998.97;5014462;28;20053;-82
2022/01/15 08:02:47;;;;;;;4.10;2.85;;;;;;;18.18;36.66;102006.16;5013347;28;20057;-82
2022/01/15 08:05:14;;;;;;;4.45;2.70;;;;;;;18.18;36.61;102006.16;5014910;28;20050;-82
2022/01/15 08:07:42;;;;;;;3.75;2.47;;;;;;;18.17;36.63;102004.44;5014051;28;20045;-82
2022/01/15 08:10:10;;;;;;;3.83;2.83;;;;;;;18.17;36.82;102007.13;5014854;28;20041;-82
2022/01/15 08:12:51;;;;;;;5.00;3.13;;;;;;;18.17;36.79;102007.13;5014302;28;20050;-82
2022/01/15 08:15:20;;;;;;;3.92;2.92;;;;;;;18.17;36.71;102011.63;5013004;28;20054;-82
2022/01/15 08:17:48;;;;;;;4.22;2.95;;;;;;;18.17;36.78;102008.94;5024526;28;20060;-82
2022/01/15 08:20:16;;;;;;;5.75;3.20;;;;;;;18.17;36.87;102019.66;5014055;28;20046;-82
2022/01/15 08:22:45;;;;;;;3.53;2.65;;;;;;;18.16;36.71;102013.44;5013942;28;20046;-82
2022/01/15 08:25:16;;;;;;;3.78;2.60;;;;;;;18.16;36.97;102018.78;5013814;28;20411;-82
2022/01/15 08:27:45;;;;;;;4.15;2.90;;;;;;;18.15;36.62;102017.09;5012606;28;20049;-82
2022/01/15 08:30:14;;;;;;;3.83;2.90;;;;;;;18.16;36.74;102024.16;5013806;28;20049;-81
2022/01/15 08:32:42;;;;;;;3.70;2.40;;;;;;;18.16;36.84;102025.97;5013372;28;20053;-82
2022/01/15 08:35:10;;;;;;;4.10;3.00;;;;;;;18.14;36.81;102031.41;5013635;28;20458;-82
2022/01/15 08:37:38;;;;;;;3.33;2.70;;;;;;;18.14;36.75;102030.56;5013534;28;20061;-83
2022/01/15 08:40:08;;;;;;;3.05;2.40;;;;;;;18.13;36.70;102034.19;5013290;28;20069;-83
2022/01/15 08:42:36;;;;;;;3.83;2.72;;;;;;;18.12;36.70;102033.34;5013509;28;20057;-83
2022/01/15 08:45:06;;;;;;;3.63;2.60;;;;;;;18.12;36.62;102038.69;5013509;28;20109;-83
2022/01/15 08:47:33;;;;;;;3.90;3.20;;;;;;;18.14;36.33;102038.59;5013531;28;20050;-82
2022/01/15 08:50:01;;;;;;;3.53;2.60;;;;;;;18.16;36.32;102044.75;5013610;28;20054;-82
2022/01/15 08:52:28;;;;;;;4.53;2.80;;;;;;;18.16;36.42;102039.38;5013623;28;20042;-81
2022/01/15 08:54:57;;;;;;;4.22;2.75;;;;;;;18.19;36.35;102039.16;5013262;28;20052;-81
2022/01/15 08:57:24;;;;;;;3.58;3.00;;;;;;;18.19;36.29;102042.72;5013500;28;20493;-82
2022/01/15 08:59:52;;;;;;;3.70;2.78;;;;;;;18.19;36.35;102045.41;5013523;28;20053;-82
2022/01/15 09:02:20;;;;;;;4.72;3.35;;;;;;;18.21;36.32;102042.63;5012125;28;20375;-82
2022/01/15 09:04:48;;;;;;;3.78;2.70;;;;;;;18.21;36.29;102054.22;5012233;28;20486;-81
2022/01/15 09:07:15;;;;;;;3.63;2.50;;;;;;;18.22;36.37;102055.91;5013583;28;20042;-82
2022/01/15 09:09:43;;;;;;;6.10;3.15;;;;;;;18.22;36.40;102057.75;5011776;28;20050;-81
2022/01/15 09:12:15;;;;;;;4.55;2.67;;;;;;;18.21;37.21;102056.88;5013175;28;20050;-80
2022/01/15 09:14:43;;;;;;;4.68;2.97;;;;;;;18.20;38.42;102051.63;5013256;28;20046;-83
2022/01/15 09:17:11;;;;;;;4.55;2.83;;;;;;;18.17;38.32;102050.00;5015722;28;20065;-80
2022/01/15 09:19:38;;;;;;;3.80;2.88;;;;;;;18.14;38.14;102052.84;5015271;28;20041;-82
2022/01/15 09:22:09;;;;;;;3.47;2.75;;;;;;;18.13;38.01;102055.63;5013113;28;20042;-81
2022/01/15 09:24:37;;;;;;;3.55;2.58;;;;;;;18.13;37.90;102055.63;5013468;28;20057;-82
2022/01/15 09:32:54;;;;;;;4.53;3.13;;;;;;;18.10;37.66;102051.31;4995747;28;20058;-82
2022/01/15 09:35:25;;;;;;;3.88;2.88;;;;;;;18.09;37.59;102059.47;4995631;28;20062;-82
2022/01/15 09:37:53;;;;;;;3.97;3.03;;;;;;;18.09;37.46;102054.09;4978715;28;20053;-83
2022/01/15 09:40:24;;;;;;;4.50;3.05;;;;;;;18.09;37.53;102052.28;4979026;28;20103;-83
2022/01/15 09:42:54;;;;;;;4.22;2.90;;;;;;;18.09;37.38;102052.28;4995380;28;20149;-83
2022/01/15 09:45:23;;;;;;;4.13;3.10;;;;;;;18.08;37.46;102050.56;4995313;28;20050;-82
2022/01/15 09:48:00;;;;;;;3.58;2.90;;;;;;;18.09;37.43;102046.06;4995441;28;20415;-81
2022/01/15 09:50:32;;;;;;;4.32;3.20;;;;;;;18.09;37.49;102044.25;4995131;28;20108;-81
2022/01/15 09:52:59;;;;;;;6.40;2.80;;;;;;;18.09;37.27;102046.91;4994961;28;20402;-83
2022/01/15 09:55:27;;;;;;;3.97;3.10;;;;;;;18.11;37.45;102044.13;4995049;28;20542;-84
2022/01/15 09:57:55;;;;;;;3.20;2.53;;;;;;;18.11;37.44;102041.47;4995033;28;20050;-80
2022/01/15 10:00:24;;;;;;;4.13;2.80;;;;;;;18.10;37.39;102045.97;4994879;28;20046;-82
2022/01/15 10:02:53;;;;;;;5.90;3.17;;;;;;;18.11;37.50;102042.34;4994795;28;20062;-83
2022/01/15 10:05:22;;;;;;;4.47;2.78;;;;;;;18.12;37.41;102045.88;4994761;28;20520;-81
2022/01/15 10:08:02;;;;;;;4.47;3.03;;;;;;;18.11;37.39;102039.66;5011502;28;20069;-82
2022/01/15 10:10:36;;;;;;;4.90;2.45;;;;;;;18.13;37.45;102036.88;5016834;28;20463;-82
2022/01/15 10:13:16;;;;;;;5.35;3.40;;;;;;;18.12;37.25;102037.84;5016669;28;20046;-82
2022/01/15 10:15:46;;;;;;;6.35;3.00;;;;;;;18.12;37.15;102032.50;5016271;28;20057;-85
2022/01/15 10:18:29;;;;;;;4.40;2.95;;;;;;;18.12;37.29;102029.81;5017538;28;20370;-80
2022/01/15 10:21:18;;;;;;;5.05;2.70;;;;;;;18.12;37.17;102033.34;5022289;28;20410;-80
2022/01/15 10:23:46;;;;;;;4.20;2.75;;;;;;;18.12;37.06;102027.13;5015629;28;20041;-81
2022/01/15 10:26:21;;;;;;;6.78;2.85;;;;;;;18.11;37.15;102028.94;5015871;28;20053;-81
2022/01/15 10:29:03;;;;;;;4.18;3.25;;;;;;;18.12;37.23;102016.41;5015827;28;20356;-82
2022/01/15 10:31:39;;;;;;;4.68;3.25;;;;;;;18.12;37.23;102022.63;5014860;28;20497;-82
2022/01/15 10:34:31;;;;;;;3.65;2.75;;;;;;;18.13;37.24;102013.63;5014645;28;20042;-82
2022/01/15 10:37:12;;;;;;;5.97;2.45;;;;;;;18.13;37.22;102008.25;5016072;28;20050;-81
2022/01/15 10:39:52;;;;;;;5.95;3.22;;;;;;;18.15;36.62;102005.47;5014589;28;20046;-81
2022/01/15 10:42:23;;;;;;;5.75;3.42;;;;;;;18.13;35.11;102008.25;5015786;28;20049;-82
2022/01/15 10:44:56;;;;;;;5.13;2.78;;;;;;;18.13;36.27;102007.41;5015639;28;20054;-82
2022/01/15 10:47:27;;;;;;;4.78;3.10;;;;;;;18.12;36.30;102011.03;5015392;28;20053;-81
2022/01/15 10:50:02;;;;;;;4.00;3.10;;;;;;;18.11;36.32;102020.91;5013856;28;20513;-81
2022/01/15 10:52:30;;;;;;;4.28;2.95;;;;;;;18.11;36.33;102009.28;5015458;28;20053;-80
2022/01/15 10:55:07;;;;;;;4.85;2.83;;;;;;;18.12;36.15;102019.09;5015571;28;20053;-80
2022/01/15 10:57:38;;;;;;;4.43;2.85;;;;;;;18.10;36.40;102015.63;5013807;28;20053;-81
2022/01/15 11:00:15;;;;;;;5.68;3.33;;;;;;;18.09;36.23;102020.13;5015017;28;20050;-82
2022/01/15 11:02:54;;;;;;;6.65;2.80;;;;;;;18.11;36.35;102014.66;5013655;28;20057;-82
2022/01/15 11:05:30;;;;;;;4.07;3.10;;;;;;;18.10;36.47;102013.81;5013678;28;20050;-82
2022/01/15 11:08:12;;;;;;;3.88;2.65;;;;;;;18.11;36.45;102010.19;5015202;28;20042;-81
2022/01/15 11:10:54;;;;;;;4.10;2.67;;;;;;;18.11;36.41;102007.50;5015075;28;20045;-84
2022/01/15 11:13:43;;;;;;;3.67;2.50;;;;;;;18.10;36.33;101997.72;5014537;28;20053;-81
2022/01/15 11:16:14;;;;;;;5.47;2.67;;;;;;;18.09;36.51;101990.66;5014536;28;20053;-80
2022/01/15 11:18:49;;;;;;;5.55;2.97;;;;;;;18.10;36.73;101996.88;5014847;28;20046;-81
2022/01/15 11:21:19;;;;;;;5.72;2.90;;;;;;;18.12;36.78;101984.25;5021608;28;20046;-82
2022/01/15 11:23:48;;;;;;;4.68;2.65;;;;;;;18.12;36.91;101994.97;5014738;28;20045;-80
2022/01/15 11:26:27;;;;;;;4.55;2.78;;;;;;;18.11;37.08;101986.06;5013848;28;20046;-81
2022/01/15 11:28:55;;;;;;;6.53;3.03;;;;;;;18.12;37.24;101984.25;5014018;28;20057;-80
2022/01/15 11:31:28;;;;;;;5.70;3.30;;;;;;;18.12;36.92;101984.25;5012991;28;20050;-80
2022/01/15 11:33:59;;;;;;;5.35;2.50;;;;;;;18.12;37.26;101977.06;5014644;28;20050;-81
2022/01/15 11:36:37;;;;;;;4.15;2.83;;;;;;;18.13;37.32;101978.78;5014645;28;20054;-80
2022/01/15 11:39:10;;;;;;;5.55;3.20;;;;;;;18.12;37.21;101979.75;5014482;28;20069;-81
2022/01/15 11:41:40;;;;;;;6.43;3.28;;;;;;;18.13;37.23;101976.09;5012764;28;20046;-78
2022/01/15 11:44:13;;;;;;;6.93;2.63;;;;;;;18.13;37.47;101965.38;5014278;28;20042;-80
2022/01/15 11:46:47;;;;;;;5.07;2.80;;;;;;;18.14;37.30;101976.97;5012919;28;20053;-80
2022/01/15 11:49:23;;;;;;;6.45;3.40;;;;;;;18.14;37.32;101967.09;5013336;28;20049;-81
2022/01/15 11:52:09;;;;;;;6.03;2.58;;;;;;;18.17;37.28;101960.69;5011952;28;20056;-81
2022/01/15 11:54:41;;;;;;;3.53;2.50;;;;;;;18.16;37.42;101951.78;5012911;28;20054;-81
2022/01/15 11:57:49;;;;;;;6.05;3.03;;;;;;;18.17;37.65;101950.81;5014264;28;20049;-81
2022/01/15 12:00:21;;;;;;;6.45;3.40;;;;;;;18.16;37.84;101946.44;4971099;28;20047;-80
2022/01/15 12:03:15;;;;;;;3.83;2.38;;;;;;;18.16;37.85;101948.25;4962013;28;20059;-81
2022/01/15 12:05:45;;;;;;;5.65;3.22;;;;;;;18.15;37.82;101947.41;4972064;28;20067;-83
2022/01/15 12:08:13;;;;;;;4.03;2.83;;;;;;;18.15;37.95;101942.03;4956298;28;20055;-80
2022/01/15 12:10:41;;;;;;;5.72;2.95;;;;;;;18.15;38.14;101933.09;4972864;28;20047;-81